createdAt,value
2019-02-02T00:03:57.645Z,54
2019-02-02T00:09:00.121Z,60
2019-02-02T00:14:02.560Z,56
2019-02-02T00:19:05.137Z,61
2019-02-02T00:24:07.481Z,49
2019-02-02T00:29:09.948Z,54
2019-02-02T00:34:12.415Z,51
2019-02-02T00:39:14.870Z,65
2019-02-02T00:44:17.348Z,55
2019-02-02T00:49:19.796Z,51
2019-02-02T00:54:22.260Z,57
2019-02-02T00:59:24.704Z,55
2019-02-02T01:04:27.157Z,60
2019-02-02T01:09:29.621Z,59
2019-02-02T01:14:32.121Z,63
2019-02-02T01:19:34.541Z,54
2019-02-02T01:24:37.098Z,57
2019-02-02T01:29:39.449Z,62
2019-02-02T01:34:41.903Z,58
2019-02-02T01:39:44.362Z,72
2019-02-02T01:44:46.824Z,75
2019-02-02T01:49:49.266Z,68
2019-02-02T01:54:51.740Z,58
2019-02-02T01:59:54.198Z,76
2019-02-02T02:04:56.651Z,64
2019-02-02T02:09:59.124Z,71
2019-02-02T02:15:01.745Z,62
2019-02-02T02:20:04.041Z,64
2019-02-02T02:25:06.499Z,70
2019-02-02T02:30:09.019Z,52
2019-02-02T02:35:11.400Z,49
2019-02-02T02:40:13.860Z,67
2019-02-02T02:45:16.376Z,62
2019-02-02T02:50:18.781Z,60
2019-02-02T02:55:21.245Z,64
2019-02-02T03:00:23.710Z,61
2019-02-02T03:05:26.166Z,72
2019-02-02T03:10:28.619Z,72
2019-02-02T03:15:31.083Z,72
2019-02-02T03:20:33.568Z,65
2019-02-02T03:25:36.013Z,66
2019-02-02T03:30:38.526Z,67
2019-02-02T03:35:40.959Z,58
2019-02-02T03:40:43.379Z,54
2019-02-02T03:45:45.891Z,62
2019-02-02T03:50:48.296Z,59
2019-02-02T03:55:50.760Z,69
2019-02-02T04:00:53.327Z,69
2019-02-02T04:05:55.691Z,67
2019-02-02T04:10:58.146Z,71
2019-02-02T04:16:00.614Z,75
2019-02-02T04:21:03.099Z,69
2019-02-02T04:26:05.534Z,81
2019-02-02T04:31:07.993Z,72
2019-02-02T04:36:10.464Z,73
2019-02-02T04:41:12.938Z,76
2019-02-02T04:46:15.381Z,83
2019-02-02T04:51:17.843Z,76
2019-02-02T04:56:20.335Z,78
2019-02-02T05:01:22.775Z,85
2019-02-02T05:06:25.231Z,91
2019-02-02T05:11:27.721Z,86
2019-02-02T05:16:30.178Z,86
2019-02-02T05:21:32.604Z,98
2019-02-02T05:26:35.138Z,91
2019-02-02T05:31:37.671Z,114
2019-02-02T05:36:40.000Z,91
2019-02-02T05:41:42.442Z,101
2019-02-02T05:46:44.952Z,110
2019-02-02T05:51:47.430Z,101
2019-02-02T05:56:49.856Z,104
2019-02-02T06:01:52.291Z,111
2019-02-02T06:06:54.826Z,103
2019-02-02T06:11:57.222Z,101
2019-02-02T06:16:59.727Z,98
2019-02-02T06:22:02.134Z,99
2019-02-02T06:27:04.707Z,93
2019-02-02T06:32:11.651Z,104
2019-02-02T06:37:09.530Z,103
2019-02-02T06:42:11.989Z,117
2019-02-02T06:47:14.458Z,119
2019-02-02T06:52:16.942Z,103
2019-02-02T06:57:19.423Z,104
2019-02-02T07:02:21.890Z,100
2019-02-02T07:07:24.323Z,107
2019-02-02T07:12:26.770Z,116
2019-02-02T07:17:29.269Z,100
2019-02-02T07:22:31.699Z,111
2019-02-02T07:27:34.214Z,114
2019-02-02T07:32:36.627Z,98
2019-02-02T07:37:39.094Z,106
2019-02-02T07:42:41.540Z,94
2019-02-02T07:47:44.021Z,96
2019-02-02T07:52:46.483Z,97
2019-02-02T07:57:48.945Z,96
2019-02-02T08:02:51.429Z,95
2019-02-02T08:07:53.849Z,93
2019-02-02T08:12:56.318Z,82
2019-02-02T08:17:58.804Z,85
2019-02-02T08:23:01.310Z,86
2019-02-02T08:28:03.732Z,91
2019-02-02T08:33:06.186Z,88
2019-02-02T08:38:08.643Z,88
2019-02-02T08:43:11.146Z,86
2019-02-02T08:48:13.560Z,76
2019-02-02T08:53:16.023Z,82
2019-02-02T08:58:18.567Z,89
2019-02-02T09:03:20.947Z,85
2019-02-02T09:08:23.448Z,92
2019-02-02T09:13:25.838Z,87
2019-02-02T09:18:28.338Z,88
2019-02-02T09:23:30.767Z,67
2019-02-02T09:28:33.228Z,67
2019-02-02T09:33:35.700Z,65
2019-02-02T09:38:38.162Z,66
2019-02-02T09:43:40.595Z,93
2019-02-02T09:48:43.045Z,69
2019-02-02T09:53:45.516Z,67
2019-02-02T09:58:48.032Z,71
2019-02-02T10:03:50.419Z,69
2019-02-02T10:08:52.884Z,63
2019-02-02T10:13:55.345Z,61
2019-02-02T10:18:57.785Z,63
2019-02-02T10:24:00.265Z,64
2019-02-02T10:29:02.697Z,59
2019-02-02T10:34:05.166Z,61
2019-02-02T10:39:07.610Z,57
2019-02-02T10:44:10.096Z,52
2019-02-02T10:49:12.536Z,57
2019-02-02T10:54:14.988Z,58
2019-02-02T10:59:17.496Z,57
2019-02-02T11:04:19.968Z,65
2019-02-02T11:09:22.488Z,67
2019-02-02T11:14:25.171Z,69
2019-02-02T11:19:27.324Z,67
2019-02-02T11:24:29.730Z,70
2019-02-02T11:29:32.289Z,68
2019-02-02T11:34:34.644Z,65
2019-02-02T11:39:37.108Z,78
2019-02-02T11:44:39.582Z,71
2019-02-02T11:49:42.113Z,82
2019-02-02T11:54:44.474Z,69
2019-02-02T11:59:46.927Z,73
2019-02-02T12:04:49.385Z,74
2019-02-02T12:09:51.976Z,70
2019-02-02T12:14:56.763Z,70
2019-02-02T12:19:56.762Z,70
2019-02-02T12:25:01.647Z,73
2019-02-02T12:30:06.657Z,85
2019-02-02T12:35:04.787Z,68
2019-02-02T12:40:06.601Z,77
2019-02-02T12:45:09.058Z,82
2019-02-02T12:50:11.509Z,87
2019-02-02T12:55:14.005Z,76
2019-02-02T13:00:16.424Z,62
2019-02-02T13:05:18.872Z,79
2019-02-02T13:10:24.116Z,60
2019-02-02T13:15:23.785Z,68
2019-02-02T13:20:26.240Z,61
2019-02-02T13:25:28.708Z,58
2019-02-02T13:30:31.201Z,59
2019-02-02T13:35:33.665Z,57
2019-02-02T13:40:36.069Z,61
2019-02-02T13:45:38.527Z,61
2019-02-02T13:50:41.026Z,58
2019-02-02T13:55:43.498Z,61
2019-02-02T14:00:45.904Z,63
2019-02-02T14:05:48.374Z,56
2019-02-02T14:10:50.855Z,53
2019-02-02T14:15:53.286Z,59
2019-02-02T14:20:55.749Z,67
2019-02-02T14:25:58.200Z,62
2019-02-02T14:31:00.681Z,60
2019-02-02T14:36:03.112Z,71
2019-02-02T14:41:05.568Z,61
2019-02-02T14:46:08.018Z,65
2019-02-02T14:51:10.517Z,63
2019-02-02T14:56:12.958Z,50
2019-02-02T15:01:15.417Z,53
2019-02-02T15:06:17.852Z,52
2019-02-02T15:11:20.306Z,51
2019-02-02T15:16:22.792Z,63
2019-02-02T15:21:25.228Z,66
2019-02-02T15:26:27.679Z,72
2019-02-02T15:31:30.137Z,71
2019-02-02T15:36:32.612Z,77
2019-02-02T15:41:35.121Z,71
2019-02-02T15:46:48.279Z,70
2019-02-02T15:51:40.606Z,69
2019-02-02T15:56:42.445Z,66
2019-02-02T16:01:44.982Z,61
2019-02-02T16:06:47.475Z,90
2019-02-02T16:11:49.826Z,73
2019-02-02T16:16:52.243Z,59
2019-02-02T16:21:54.708Z,60
2019-02-02T16:26:57.164Z,64
2019-02-02T16:31:59.771Z,71
2019-02-02T16:37:02.084Z,75
2019-02-02T16:42:04.547Z,96
2019-02-02T16:47:07.011Z,125
2019-02-02T16:52:09.471Z,76
2019-02-02T16:57:11.929Z,66
2019-02-02T17:02:14.373Z,70
2019-02-02T17:07:16.834Z,82
2019-02-02T17:12:19.295Z,65
2019-02-02T17:17:21.795Z,72
2019-02-02T17:22:24.241Z,65
2019-02-02T17:27:26.645Z,70
2019-02-02T17:32:29.106Z,75
2019-02-02T17:37:31.582Z,73
2019-02-02T17:42:34.021Z,74
2019-02-02T17:47:36.478Z,66
2019-02-02T17:52:38.958Z,89
2019-02-02T17:57:41.429Z,77
2019-02-02T18:02:43.872Z,80
2019-02-02T18:07:46.363Z,68
2019-02-02T18:12:48.783Z,66
2019-02-02T18:17:51.269Z,83
2019-02-02T18:22:53.752Z,80
2019-02-02T18:27:56.160Z,88
2019-02-02T18:32:58.604Z,112
2019-02-02T18:38:01.096Z,125
2019-02-02T18:43:03.515Z,119
2019-02-02T18:48:05.988Z,104
2019-02-02T18:53:08.477Z,127
2019-02-02T18:58:10.896Z,112
2019-02-02T19:03:13.387Z,98
2019-02-02T19:08:15.812Z,96
2019-02-02T19:13:18.261Z,93
2019-02-02T19:18:20.722Z,92
2019-02-02T19:23:24.964Z,82
2019-02-02T19:28:26.590Z,103
2019-02-02T19:33:28.114Z,92
2019-02-02T19:38:30.592Z,93
2019-02-02T19:43:33.021Z,83
2019-02-02T19:48:35.515Z,80
2019-02-02T19:53:38.098Z,72
2019-02-02T19:58:40.404Z,73
2019-02-02T20:03:42.885Z,58
2019-02-02T20:08:45.336Z,70
2019-02-02T20:13:47.887Z,60
2019-02-02T20:18:50.252Z,58
2019-02-02T20:23:52.700Z,80
2019-02-02T20:33:57.609Z,58
2019-02-02T20:39:00.066Z,69
2019-02-02T20:44:02.552Z,79
2019-02-02T20:49:07.640Z,75
2019-02-02T20:54:07.488Z,80
2019-02-02T20:59:09.890Z,79
2019-02-02T21:04:12.360Z,87
2019-02-02T21:09:14.824Z,81
2019-02-02T21:14:17.406Z,67
2019-02-02T21:19:19.720Z,71
2019-02-02T21:24:22.177Z,66
2019-02-02T21:29:24.641Z,84
2019-02-02T21:34:27.102Z,75
2019-02-02T21:39:29.583Z,89
2019-02-02T21:44:42.565Z,87
2019-02-02T21:49:34.471Z,92
2019-02-02T21:54:36.951Z,88
2019-02-02T21:59:39.405Z,87
2019-02-02T22:04:41.840Z,78
2019-02-02T22:09:44.363Z,82
2019-02-02T22:14:46.799Z,80
2019-02-02T22:19:49.214Z,71
2019-02-02T22:24:51.685Z,84
2019-02-02T22:29:54.192Z,75
2019-02-02T22:34:58.963Z,98
2019-02-02T22:39:59.047Z,115
2019-02-02T22:45:01.534Z,118
2019-02-02T22:50:03.975Z,141
2019-02-02T22:55:06.445Z,147
2019-02-02T23:00:08.936Z,174
2019-02-02T23:05:11.370Z,145
2019-02-02T23:10:13.826Z,106
2019-02-02T23:15:16.309Z,84
2019-02-02T23:20:18.727Z,100
2019-02-02T23:25:21.200Z,106
2019-02-02T23:30:23.666Z,107
2019-02-02T23:35:26.126Z,106
2019-02-02T23:40:28.708Z,117
2019-02-02T23:45:31.074Z,99
2019-02-02T23:50:33.510Z,84
2019-02-02T23:55:36.269Z,91
